Time;durP1;ratioP1;P1;durP2;ratioP2;P2;SDS_P1;SDS_P2;PMS_P1;PMS_P2;Temp;Humidity;BMP_temperature;BMP_pressure;BME280_temperature;BME280_humidity;BME280_pressure;Samples;Min_cycle;Max_cycle;Signal;HPM_P1;HPM_P2
2022/06/30 00:00:45;;;;;;;10.43;5.10;;;;;;;16.48;73.43;93500.50;5113260;28;20446;-46
2022/06/30 00:03:10;;;;;;;5.53;4.65;;;;;;;16.59;72.85;93494.34;5113071;28;20023;-47
2022/06/30 00:05:36;;;;;;;5.97;5.38;;;;;;;16.73;72.27;93498.16;5113132;28;20035;-46
2022/06/30 00:08:02;;;;;;;5.63;4.72;;;;;;;16.53;72.31;93493.91;5113257;28;20019;-47
2022/06/30 00:10:28;;;;;;;5.82;4.88;;;;;;;16.46;72.60;93497.53;5113191;28;20076;-47
2022/06/30 00:12:53;;;;;;;7.47;5.60;;;;;;;16.45;72.80;93496.81;5113288;27;20454;-47
2022/06/30 00:15:20;;;;;;;8.85;5.00;;;;;;;16.59;72.70;93492.28;5113160;28;20374;-45
2022/06/30 00:17:45;;;;;;;8.00;5.70;;;;;;;16.46;72.88;93494.75;5098330;27;20102;-47
2022/06/30 00:20:11;;;;;;;8.90;5.03;;;;;;;16.58;72.68;93490.84;5091778;28;20050;-48
2022/06/30 00:22:36;;;;;;;7.57;5.28;;;;;;;16.67;72.31;93492.88;5092050;28;20512;-45
2022/06/30 00:25:02;;;;;;;10.05;5.45;;;;;;;16.53;72.79;93500.22;5092305;28;20455;-45
2022/06/30 00:27:27;;;;;;;9.07;5.57;;;;;;;15.94;73.20;93452.63;5092294;28;20027;-46
2022/06/30 00:29:53;;;;;;;5.55;5.00;;;;;;;16.02;73.91;93495.00;5092052;28;20078;-46
2022/06/30 00:32:18;;;;;;;8.50;4.80;;;;;;;16.09;73.14;93480.19;5092511;28;20016;-48
2022/06/30 00:34:44;;;;;;;7.47;5.35;;;;;;;16.04;72.93;93472.13;5092421;28;20020;-45
2022/06/30 00:37:09;;;;;;;7.25;5.03;;;;;;;16.06;73.02;93489.00;5092102;28;20031;-47
2022/06/30 00:39:35;;;;;;;6.03;5.20;;;;;;;16.01;73.04;93490.75;5092315;28;20020;-46
2022/06/30 00:42:01;;;;;;;8.15;5.43;;;;;;;15.97;73.15;93489.72;5092166;28;20031;-48
2022/06/30 00:44:27;;;;;;;6.80;4.97;;;;;;;16.14;72.07;93490.31;5092292;28;20051;-46
2022/06/30 00:46:53;;;;;;;6.55;4.63;;;;;;;16.05;72.05;93495.91;5092150;28;20460;-46
2022/06/30 00:49:19;;;;;;;10.00;4.85;;;;;;;15.81;72.61;93486.44;5092059;28;20024;-46
2022/06/30 00:51:45;;;;;;;5.68;4.82;;;;;;;15.82;73.21;93490.72;5090692;28;20106;-47
2022/06/30 00:54:11;;;;;;;5.15;4.57;;;;;;;15.68;73.52;93489.66;5092024;28;20024;-45
2022/06/30 00:56:37;;;;;;;5.75;4.97;;;;;;;15.68;73.38;93495.94;5092024;28;20028;-46
2022/06/30 00:59:05;;;;;;;6.18;4.55;;;;;;;15.56;73.84;93488.72;5090395;28;20511;-47
2022/06/30 01:01:31;;;;;;;5.20;4.70;;;;;;;15.60;73.44;93486.97;5091604;28;20108;-49
2022/06/30 01:03:58;;;;;;;7.07;5.93;;;;;;;15.60;73.14;93497.38;5091897;28;20046;-47
2022/06/30 01:06:24;;;;;;;7.68;5.70;;;;;;;15.35;74.19;93480.88;5091820;28;20101;-46
2022/06/30 01:08:50;;;;;;;7.25;5.85;;;;;;;15.29;74.83;93485.94;5091536;28;20070;-46
2022/06/30 01:14:03;;;;;;;8.23;5.32;;;;;;;15.80;73.61;93485.00;5105116;28;20058;-47
2022/06/30 01:16:28;;;;;;;5.07;4.57;;;;;;;15.64;73.12;93476.16;5111662;28;20446;-46
2022/06/30 01:18:54;;;;;;;6.82;4.88;;;;;;;15.65;72.85;93472.06;5111618;28;20071;-47
2022/06/30 01:21:19;;;;;;;5.55;4.80;;;;;;;15.73;73.42;93469.88;5110472;28;20096;-46
2022/06/30 01:23:45;;;;;;;5.60;5.10;;;;;;;15.71;72.87;93474.56;5111870;28;20028;-47
2022/06/30 01:26:11;;;;;;;5.60;5.10;;;;;;;15.69;72.54;93471.63;5111508;28;20028;-45
2022/06/30 01:28:37;;;;;;;6.93;5.35;;;;;;;15.48;73.53;93463.06;5111447;28;20038;-46
2022/06/30 01:31:02;;;;;;;7.57;5.65;;;;;;;15.43;73.71;93466.81;5111552;28;20027;-46
2022/06/30 01:33:27;;;;;;;7.45;4.95;;;;;;;15.44;73.95;93465.56;5111668;28;20038;-45
2022/06/30 01:35:56;;;;;;;7.93;4.80;;;;;;;15.37;74.05;93463.59;5111618;28;20023;-47
2022/06/30 01:38:22;;;;;;;8.27;5.68;;;;;;;15.10;75.02;93461.56;5111315;28;20024;-45
2022/06/30 01:40:48;;;;;;;9.52;6.32;;;;;;;15.08;75.13;93463.44;5111259;28;20039;-46
2022/06/30 01:43:14;;;;;;;5.55;4.88;;;;;;;15.29;74.40;93451.84;5111475;28;20027;-46
2022/06/30 01:45:41;;;;;;;7.72;5.25;;;;;;;15.36;74.03;93448.19;5110274;28;20424;-50
2022/06/30 01:48:07;;;;;;;5.60;5.10;;;;;;;15.34;73.89;93448.78;5111354;28;20028;-46
2022/06/30 01:50:33;;;;;;;5.82;4.68;;;;;;;15.24;73.74;93434.13;5109903;28;20036;-45
2022/06/30 01:52:59;;;;;;;5.75;5.15;;;;;;;15.37;73.38;93447.63;5111302;28;20026;-46
2022/06/30 01:55:26;;;;;;;7.22;5.57;;;;;;;15.38;73.24;93454.66;5111049;28;20027;-45
2022/06/30 01:57:52;;;;;;;14.52;5.30;;;;;;;15.27;74.03;93454.47;5110883;28;20035;-46
2022/06/30 02:00:20;;;;;;;6.45;4.53;;;;;;;15.42;72.75;93459.81;5110954;28;20030;-47
2022/06/30 02:02:48;;;;;;;10.75;4.72;;;;;;;15.53;72.35;93459.25;5111331;28;20023;-47
2022/06/30 02:05:14;;;;;;;5.78;4.55;;;;;;;15.53;71.30;93465.56;5111103;28;20409;-45
2022/06/30 02:07:40;;;;;;;7.53;4.78;;;;;;;15.19;72.63;93462.91;5110833;28;20023;-45
2022/06/30 02:10:07;;;;;;;8.00;5.65;;;;;;;14.94;73.29;93468.63;5098223;28;20514;-45
2022/06/30 02:12:45;;;;;;;5.07;4.57;;;;;;;14.82;73.66;93467.69;5090334;28;20482;-45
2022/06/30 02:15:17;;;;;;;6.15;5.50;;;;;;;14.88;73.68;93462.59;5090578;28;20089;-45
2022/06/30 02:17:43;;;;;;;14.40;6.50;;;;;;;15.02;73.64;93462.97;5102273;28;20049;-48
2022/06/30 02:20:09;;;;;;;9.60;7.18;;;;;;;15.00;73.52;93458.00;5111042;28;20396;-48
2022/06/30 02:22:36;;;;;;;7.07;6.38;;;;;;;14.70;75.05;93469.53;5110642;28;20485;-46
2022/06/30 02:25:02;;;;;;;8.57;7.07;;;;;;;14.39;76.12;93438.63;5110548;28;20026;-46
2022/06/30 02:27:28;;;;;;;8.50;6.15;;;;;;;14.72;75.05;93453.03;5110586;28;20027;-46
2022/06/30 02:29:53;;;;;;;8.25;6.45;;;;;;;15.01;73.93;93470.59;5110770;28;20069;-46
2022/06/30 02:32:20;;;;;;;9.73;6.70;;;;;;;14.84;73.99;93470.63;5110598;28;20030;-46
2022/06/30 02:34:46;;;;;;;9.00;7.28;;;;;;;14.75;75.07;93467.81;5110430;28;20569;-45
2022/06/30 02:37:12;;;;;;;8.85;5.90;;;;;;;14.57;74.55;93453.22;5110838;28;20057;-46
2022/06/30 02:39:37;;;;;;;10.90;7.00;;;;;;;14.79;73.90;93473.69;5110803;28;20020;-45
2022/06/30 02:42:03;;;;;;;8.00;6.45;;;;;;;14.85;73.68;93469.34;5110747;28;20019;-45
2022/06/30 02:44:29;;;;;;;7.38;6.07;;;;;;;14.85;73.34;93471.38;5109885;28;20019;-45
2022/06/30 02:46:54;;;;;;;7.15;6.28;;;;;;;14.99;72.88;93470.44;5110701;28;20458;-46
2022/06/30 02:49:21;;;;;;;7.97;6.25;;;;;;;14.94;73.90;93467.94;5110345;28;20020;-47
2022/06/30 02:51:47;;;;;;;8.25;6.40;;;;;;;14.93;73.85;93472.75;5110667;28;20032;-45
2022/06/30 02:54:13;;;;;;;6.90;6.20;;;;;;;15.01;73.31;93472.63;5110353;28;20030;-46
2022/06/30 02:56:39;;;;;;;8.18;7.05;;;;;;;14.86;73.46;93456.91;5110682;28;20020;-45
2022/06/30 02:59:04;;;;;;;8.82;6.53;;;;;;;14.51;74.33;93452.00;5110587;28;20038;-48
2022/06/30 03:01:30;;;;;;;8.45;5.55;;;;;;;14.43;75.25;93477.09;5110322;28;20047;-46
2022/06/30 03:03:55;;;;;;;11.50;6.88;;;;;;;14.27;75.66;93470.94;5110559;28;20077;-45
2022/06/30 03:06:21;;;;;;;8.30;6.38;;;;;;;14.18;75.84;93474.38;5097749;28;20028;-45
2022/06/30 03:08:46;;;;;;;6.60;5.65;;;;;;;14.27;75.49;93479.25;5089852;28;20031;-48
2022/06/30 03:11:20;;;;;;;6.80;5.47;;;;;;;14.49;74.48;93477.56;5090030;28;20020;-47
2022/06/30 03:13:46;;;;;;;6.63;5.35;;;;;;;14.50;74.73;93472.75;5089924;28;20055;-45
2022/06/30 03:16:12;;;;;;;5.90;5.30;;;;;;;14.38;74.57;93476.03;5090497;28;20016;-46
2022/06/30 03:18:38;;;;;;;6.13;5.38;;;;;;;14.15;75.72;93481.06;5109139;28;20063;-45
2022/06/30 03:21:03;;;;;;;7.18;5.00;;;;;;;14.12;75.79;93459.28;5110355;28;20026;-47
2022/06/30 03:23:29;;;;;;;5.50;5.00;;;;;;;14.24;75.28;93480.41;5110096;28;20490;-45
2022/06/30 03:25:54;;;;;;;10.50;5.35;;;;;;;14.53;73.90;93474.38;5110330;28;20028;-45
2022/06/30 03:28:20;;;;;;;5.28;4.78;;;;;;;14.47;73.66;93474.63;5110897;28;20023;-45
2022/06/30 03:30:47;;;;;;;7.65;5.72;;;;;;;14.30;74.70;93482.97;5114011;28;20100;-46
2022/06/30 03:33:14;;;;;;;6.95;5.88;;;;;;;14.42;74.56;93476.34;5113653;28;20076;-46
2022/06/30 03:35:40;;;;;;;6.22;5.63;;;;;;;14.51;74.37;93471.44;5113973;28;20023;-49
2022/06/30 03:38:06;;;;;;;6.15;5.53;;;;;;;14.59;74.25;93478.38;5113924;28;20484;-45
2022/06/30 03:40:32;;;;;;;8.20;5.70;;;;;;;14.57;74.13;93478.22;5113644;28;20012;-45
2022/06/30 03:42:58;;;;;;;6.20;5.60;;;;;;;14.46;75.53;93477.97;5112765;28;20028;-46
2022/06/30 03:45:23;;;;;;;6.60;5.70;;;;;;;14.41;75.75;93477.66;5113772;28;20011;-46
2022/06/30 03:47:48;;;;;;;7.00;5.43;;;;;;;14.47;75.16;93477.41;5113780;28;20102;-45
2022/06/30 03:50:14;;;;;;;6.10;5.10;;;;;;;14.54;74.86;93481.41;5113256;28;20462;-44
2022/06/30 03:52:39;;;;;;;7.10;6.00;;;;;;;14.32;74.86;93449.81;5113387;28;20023;-46
2022/06/30 03:55:05;;;;;;;11.35;5.38;;;;;;;14.53;75.26;93483.44;5113290;28;20019;-48
2022/06/30 03:57:31;;;;;;;8.68;5.50;;;;;;;14.67;74.66;93476.25;5113496;28;20023;-49
2022/06/30 03:59:56;;;;;;;11.70;6.07;;;;;;;14.64;74.72;93477.38;5113466;28;20019;-46
2022/06/30 04:02:22;;;;;;;6.40;5.78;;;;;;;14.69;74.58;93484.72;5102662;28;20028;-46
2022/06/30 04:04:47;;;;;;;6.63;6.00;;;;;;;14.80;74.42;93481.44;5092475;28;20045;-46
2022/06/30 04:07:13;;;;;;;7.45;6.75;;;;;;;14.97;74.08;93480.66;5092194;28;20144;-45
2022/06/30 04:09:38;;;;;;;7.47;6.72;;;;;;;15.00;73.97;93483.03;5092634;28;20020;-46
2022/06/30 04:12:04;;;;;;;8.98;6.72;;;;;;;14.87;75.05;93475.06;5092515;28;20027;-47
2022/06/30 04:14:29;;;;;;;9.00;7.03;;;;;;;14.90;75.79;93479.44;5092585;28;20016;-46
2022/06/30 04:16:55;;;;;;;6.97;6.32;;;;;;;15.10;75.22;93475.47;5099715;28;20476;-45
2022/06/30 04:19:20;;;;;;;12.60;7.22;;;;;;;14.91;76.88;93477.41;5112679;28;20036;-45
2022/06/30 04:21:46;;;;;;;13.60;7.63;;;;;;;14.93;77.32;93478.31;5113070;28;20024;-46
2022/06/30 04:24:11;;;;;;;10.07;7.30;;;;;;;14.92;78.17;93481.66;5113092;28;20051;-45
2022/06/30 04:26:37;;;;;;;11.00;7.72;;;;;;;15.00;78.53;93468.38;5112591;28;20020;-45
2022/06/30 04:29:02;;;;;;;7.75;6.97;;;;;;;15.00;79.50;93471.91;5111346;28;20019;-46
2022/06/30 04:34:11;;;;;;;6.93;6.10;;;;;;;15.25;79.87;93487.66;5112832;28;20038;-46
2022/06/30 04:36:37;;;;;;;11.48;7.13;;;;;;;15.42;79.82;93482.06;5112606;28;20036;-47
2022/06/30 04:39:02;;;;;;;9.93;6.60;;;;;;;15.44;80.49;93469.03;5112022;28;20028;-47
2022/06/30 04:41:28;;;;;;;15.70;7.75;;;;;;;15.56;79.90;93469.97;5112674;28;20032;-47
2022/06/30 04:43:57;;;;;;;8.77;6.38;;;;;;;15.67;80.09;93469.44;5112353;28;20476;-46
2022/06/30 04:46:23;;;;;;;7.05;6.45;;;;;;;15.81;79.66;93466.97;5112635;28;20458;-49
2022/06/30 04:48:49;;;;;;;13.63;7.72;;;;;;;15.87;80.78;93470.22;5111701;28;20019;-46
2022/06/30 04:51:15;;;;;;;9.55;6.60;;;;;;;16.01;81.02;93476.81;5111388;28;20020;-48
2022/06/30 04:53:41;;;;;;;8.38;7.47;;;;;;;16.12;80.87;93479.03;5112200;28;20080;-49
2022/06/30 04:56:07;;;;;;;8.23;7.25;;;;;;;16.20;78.87;93479.63;5112052;28;20035;-47
2022/06/30 04:58:32;;;;;;;8.75;6.72;;;;;;;16.24;79.10;93482.72;5101999;28;20039;-47
2022/06/30 05:00:58;;;;;;;8.13;7.05;;;;;;;16.23;79.17;93478.47;5091664;28;20024;-46
2022/06/30 05:03:23;;;;;;;9.13;6.68;;;;;;;16.24;79.54;93476.41;5091857;28;20024;-47
2022/06/30 05:05:49;;;;;;;12.45;7.20;;;;;;;16.23;79.60;93455.44;5091875;28;20048;-46
2022/06/30 05:08:14;;;;;;;7.85;6.90;;;;;;;16.39;79.43;93473.34;5091512;28;20042;-45
2022/06/30 05:10:40;;;;;;;7.13;6.32;;;;;;;16.47;78.86;93476.72;5090059;28;20182;-46
2022/06/30 05:13:07;;;;;;;7.38;6.68;;;;;;;16.55;79.20;93475.28;5091426;28;20108;-51
2022/06/30 05:15:36;;;;;;;7.05;6.07;;;;;;;16.73;79.53;93477.91;5091632;28;20532;-47
2022/06/30 05:18:01;;;;;;;9.15;7.30;;;;;;;16.88;79.53;93472.00;5107590;28;20055;-46
2022/06/30 05:20:27;;;;;;;7.60;6.80;;;;;;;16.97;79.36;93479.63;5111666;28;20019;-46
2022/06/30 05:22:52;;;;;;;12.00;6.68;;;;;;;17.15;78.76;93478.13;5111832;28;20023;-45
2022/06/30 05:28:02;;;;;;;7.57;6.78;;;;;;;17.24;78.69;93461.34;5111767;28;20038;-48
2022/06/30 05:30:28;;;;;;;8.05;6.32;;;;;;;17.44;78.08;93482.28;5110459;28;20035;-48
2022/06/30 05:32:53;;;;;;;10.55;6.95;;;;;;;17.51;78.31;93486.25;5111709;28;20031;-48
2022/06/30 05:35:19;;;;;;;7.68;6.88;;;;;;;17.65;77.93;93486.50;5111597;28;20106;-46
2022/06/30 05:37:44;;;;;;;8.18;6.55;;;;;;;17.81;77.50;93482.00;5111328;28;20058;-47
2022/06/30 05:40:10;;;;;;;12.48;7.45;;;;;;;17.85;76.96;93480.22;5111589;28;20079;-47
2022/06/30 05:42:36;;;;;;;8.23;6.85;;;;;;;17.88;77.41;93483.91;5111456;28;20080;-46
2022/06/30 05:45:02;;;;;;;11.90;7.85;;;;;;;17.97;78.59;93485.91;5111525;28;20110;-46
2022/06/30 05:47:28;;;;;;;12.23;9.43;;;;;;;18.05;79.14;93483.66;5110780;28;20439;-46
2022/06/30 05:49:53;;;;;;;33.78;21.88;;;;;;;18.11;80.00;93489.63;5110869;28;20031;-46
2022/06/30 05:52:19;;;;;;;54.75;30.27;;;;;;;18.22;81.15;93496.63;5110669;28;20469;-48
2022/06/30 05:54:44;;;;;;;54.28;32.22;;;;;;;18.32;81.10;93498.03;5101390;27;20035;-48
2022/06/30 05:57:10;;;;;;;42.33;22.95;;;;;;;18.31;81.82;93495.84;5090677;28;20032;-47
2022/06/30 05:59:35;;;;;;;19.52;11.65;;;;;;;18.48;81.33;93493.53;5090495;28;20020;-48
2022/06/30 06:02:01;;;;;;;11.20;8.20;;;;;;;18.57;80.18;93501.13;5090628;28;20030;-47
2022/06/30 06:04:27;;;;;;;11.55;6.63;;;;;;;18.67;79.01;93498.25;5090504;28;20111;-48
2022/06/30 06:06:52;;;;;;;7.80;6.57;;;;;;;18.74;78.77;93500.09;5089841;28;20032;-46
2022/06/30 06:09:18;;;;;;;12.07;8.93;;;;;;;18.77;78.94;93496.09;5090693;28;20515;-47
2022/06/30 06:11:44;;;;;;;12.25;7.43;;;;;;;18.86;78.14;93493.22;5090700;28;20020;-50
2022/06/30 06:14:10;;;;;;;8.10;6.03;;;;;;;19.05;77.38;93488.78;5090519;28;20432;-45
2022/06/30 06:16:36;;;;;;;10.82;5.72;;;;;;;19.12;76.59;93496.97;5094788;28;20011;-48
2022/06/30 06:19:01;;;;;;;6.65;5.65;;;;;;;19.24;75.83;93503.31;5110639;28;20475;-47
2022/06/30 06:21:28;;;;;;;8.68;6.63;;;;;;;19.29;75.73;93499.44;5110558;28;20044;-46
2022/06/30 06:23:54;;;;;;;7.80;6.50;;;;;;;19.38;76.07;93495.13;5110650;28;20110;-49
2022/06/30 06:26:20;;;;;;;13.13;7.50;;;;;;;19.47;73.56;93486.59;5110370;28;20028;-50
2022/06/30 06:31:30;;;;;;;22.67;13.93;;;;;;;19.74;73.23;93486.13;5110919;28;20034;-46
2022/06/30 06:33:55;;;;;;;23.15;12.27;;;;;;;19.85;72.32;93484.69;5110852;28;20027;-48
2022/06/30 06:36:21;;;;;;;25.42;13.70;;;;;;;20.07;70.78;93495.16;5110841;28;20469;-47
2022/06/30 06:38:47;;;;;;;21.40;13.70;;;;;;;20.23;70.67;93489.78;5110522;28;20484;-49
2022/06/30 06:41:12;;;;;;;18.02;11.73;;;;;;;20.42;69.58;93492.34;5110742;28;20030;-51
2022/06/30 06:43:38;;;;;;;14.32;10.27;;;;;;;20.53;69.01;93485.25;5109517;28;20031;-51
2022/06/30 06:46:03;;;;;;;15.55;10.32;;;;;;;20.64;69.11;93484.47;5110713;28;20050;-50
2022/06/30 06:48:28;;;;;;;15.90;9.45;;;;;;;20.68;69.18;93488.22;5110487;28;20047;-47
2022/06/30 06:50:54;;;;;;;15.45;8.82;;;;;;;20.79;68.22;93486.75;5101465;28;20024;-46
2022/06/30 06:53:20;;;;;;;12.05;7.47;;;;;;;20.91;65.00;93484.63;5090365;28;20024;-46
2022/06/30 06:55:45;;;;;;;8.93;6.07;;;;;;;21.07;64.24;93489.06;5089892;28;20417;-47
2022/06/30 06:58:11;;;;;;;6.97;6.00;;;;;;;21.30;58.90;93491.03;5089229;28;20111;-49
2022/06/30 07:00:36;;;;;;;9.35;6.07;;;;;;;21.26;58.00;93488.03;5089942;28;20062;-47
2022/06/30 07:03:02;;;;;;;7.93;4.72;;;;;;;21.35;60.43;93495.53;5092041;28;20032;-48
2022/06/30 07:05:28;;;;;;;8.20;5.50;;;;;;;21.38;61.87;93487.94;5093847;28;20118;-50
2022/06/30 07:07:58;;;;;;;7.03;4.93;;;;;;;21.59;61.79;93490.50;5093925;28;20070;-47
2022/06/30 07:10:23;;;;;;;8.38;4.95;;;;;;;21.76;60.44;93487.22;5092868;28;20576;-47
2022/06/30 07:12:55;;;;;;;7.63;4.57;;;;;;;21.90;58.90;93485.16;5093941;28;20108;-48
2022/06/30 07:15:24;;;;;;;5.18;4.50;;;;;;;22.13;58.00;93489.88;5093966;28;20028;-46
2022/06/30 07:17:49;;;;;;;6.53;4.57;;;;;;;22.29;57.57;93480.19;5107980;28;20055;-48
2022/06/30 07:20:15;;;;;;;7.13;4.32;;;;;;;22.54;58.11;93488.50;5114281;28;20030;-51
2022/06/30 07:22:40;;;;;;;8.80;4.38;;;;;;;22.92;58.69;93480.53;5113142;28;20512;-50
2022/06/30 07:25:07;;;;;;;3.53;3.22;;;;;;;23.32;54.45;93474.75;5113983;28;20042;-46
2022/06/30 07:27:32;;;;;;;9.70;4.30;;;;;;;23.94;54.56;93491.03;5113891;27;20016;-47
2022/06/30 07:29:58;;;;;;;9.15;4.05;;;;;;;24.65;54.80;93485.69;5113966;28;20081;-45
2022/06/30 07:32:24;;;;;;;6.32;3.80;;;;;;;25.44;51.38;93479.16;5114145;27;20470;-46
2022/06/30 07:34:50;;;;;;;5.60;4.13;;;;;;;26.23;50.61;93474.38;5112494;28;20027;-47
2022/06/30 07:37:15;;;;;;;5.13;4.00;;;;;;;27.01;48.34;93482.09;5113946;27;20020;-47
2022/06/30 07:39:41;;;;;;;5.05;3.58;;;;;;;27.73;46.55;93474.50;5113629;28;20622;-47
2022/06/30 07:42:07;;;;;;;6.30;3.72;;;;;;;28.45;45.03;93481.63;5113515;28;20027;-50
2022/06/30 07:44:32;;;;;;;7.40;3.83;;;;;;;29.14;42.53;93476.41;5112501;28;20035;-51
2022/06/30 07:46:58;;;;;;;5.63;3.47;;;;;;;29.78;42.10;93482.97;5106227;28;20016;-48
2022/06/30 07:49:23;;;;;;;4.00;3.58;;;;;;;30.58;40.34;93481.16;5093202;28;20565;-48
2022/06/30 07:51:49;;;;;;;3.78;2.70;;;;;;;31.23;37.73;93473.84;5093033;28;20028;-47
2022/06/30 07:54:15;;;;;;;5.65;2.90;;;;;;;31.89;36.86;93463.53;5091885;28;20028;-50
2022/06/30 07:56:40;;;;;;;3.08;2.78;;;;;;;32.09;33.27;93474.53;5092954;28;20031;-52
2022/06/30 07:59:06;;;;;;;2.53;2.25;;;;;;;32.55;33.05;93478.03;5092764;28;20031;-52
2022/06/30 08:01:31;;;;;;;5.38;2.30;;;;;;;33.31;32.64;93477.47;5092446;28;20027;-50
2022/06/30 08:03:57;;;;;;;4.18;2.60;;;;;;;34.02;31.00;93482.38;5091792;28;20039;-47
2022/06/30 08:06:24;;;;;;;3.53;2.00;;;;;;;34.68;26.20;93479.19;5092791;28;20024;-52
2022/06/30 08:08:50;;;;;;;2.50;1.88;;;;;;;35.14;24.32;93475.78;5093010;28;20123;-49
2022/06/30 08:11:15;;;;;;;4.50;1.95;;;;;;;35.40;25.16;93484.44;5092553;28;20540;-49
2022/06/30 08:13:41;;;;;;;3.40;2.15;;;;;;;35.44;22.89;93483.72;5091975;28;20031;-52
2022/06/30 08:16:06;;;;;;;1.98;1.77;;;;;;;35.33;24.24;93477.25;5092171;28;20035;-47
2022/06/30 08:18:31;;;;;;;2.17;2.00;;;;;;;35.29;23.98;93470.75;5111520;28;20043;-53
2022/06/30 08:20:57;;;;;;;2.40;1.88;;;;;;;35.55;25.30;93471.56;5112945;28;20043;-51
2022/06/30 08:23:23;;;;;;;7.43;2.15;;;;;;;35.29;22.68;93467.91;5112156;28;20027;-53
2022/06/30 08:25:48;;;;;;;5.20;2.55;;;;;;;34.80;26.08;93472.78;5112808;28;20397;-50
2022/06/30 08:28:14;;;;;;;3.50;2.08;;;;;;;34.42;23.76;93466.84;5111881;27;20435;-49
2022/06/30 08:30:39;;;;;;;4.70;2.28;;;;;;;34.49;25.09;93471.19;5112167;28;20437;-48
2022/06/30 08:33:05;;;;;;;2.95;2.10;;;;;;;35.11;25.11;93470.75;5110744;28;20115;-49
2022/06/30 08:35:30;;;;;;;7.80;2.45;;;;;;;35.94;24.65;93474.41;5111098;28;20112;-49
2022/06/30 08:37:56;;;;;;;3.20;2.22;;;;;;;36.20;22.71;93483.03;5112599;28;20018;-48
2022/06/30 08:43:09;;;;;;;2.58;2.00;;;;;;;36.85;21.45;93472.78;5106252;28;20058;-49
2022/06/30 08:45:35;;;;;;;3.03;1.85;;;;;;;37.49;22.81;93476.81;5092071;28;20032;-48
2022/06/30 08:48:01;;;;;;;7.57;2.47;;;;;;;37.03;22.93;93481.38;5092019;28;20081;-48
2022/06/30 08:50:26;;;;;;;4.82;2.05;;;;;;;36.79;20.70;93480.72;5092154;28;20171;-50
2022/06/30 08:52:59;;;;;;;2.72;1.92;;;;;;;36.28;22.43;93483.00;5092233;28;20024;-51
2022/06/30 08:55:30;;;;;;;3.55;2.25;;;;;;;35.71;22.81;93485.22;5090981;28;20103;-48
2022/06/30 08:58:07;;;;;;;3.25;2.20;;;;;;;35.30;24.08;93490.16;5091708;28;20024;-52
2022/06/30 09:00:34;;;;;;;4.13;2.25;;;;;;;35.50;25.24;93492.34;5091788;28;20024;-48
2022/06/30 09:03:01;;;;;;;3.15;1.70;;;;;;;35.60;24.54;93481.63;5091665;28;20024;-48
2022/06/30 09:05:26;;;;;;;3.70;2.03;;;;;;;35.40;24.67;93478.69;5091596;28;20310;-52
2022/06/30 09:07:52;;;;;;;3.60;2.45;;;;;;;35.76;24.99;93483.75;5091976;28;20040;-47
2022/06/30 09:10:18;;;;;;;3.60;2.20;;;;;;;35.76;25.05;93480.88;5091642;28;20512;-50
2022/06/30 09:12:57;;;;;;;2.80;2.10;;;;;;;36.04;24.39;93489.50;5091532;28;20558;-52
2022/06/30 09:15:22;;;;;;;5.60;2.40;;;;;;;35.67;25.75;93488.78;5091519;28;20025;-49
2022/06/30 09:17:47;;;;;;;3.00;2.78;;;;;;;35.59;24.73;93485.91;5105446;28;20020;-52
2022/06/30 09:20:14;;;;;;;2.15;2.03;;;;;;;35.46;26.79;93481.56;5111779;27;20016;-51
2022/06/30 09:22:40;;;;;;;3.22;2.55;;;;;;;35.30;24.64;93495.19;5111651;28;20019;-53
2022/06/30 09:25:20;;;;;;;3.38;1.83;;;;;;;35.79;27.11;93490.94;5111802;28;20416;-52
2022/06/30 09:27:48;;;;;;;4.55;2.05;;;;;;;36.08;24.48;93488.81;5111213;28;20028;-50
2022/06/30 09:30:15;;;;;;;2.35;2.15;;;;;;;35.68;24.36;93492.38;5111429;27;20022;-49
2022/06/30 09:32:44;;;;;;;2.30;2.00;;;;;;;35.96;23.65;93494.56;5111871;28;20019;-49
2022/06/30 09:35:10;;;;;;;3.70;2.05;;;;;;;35.88;23.26;93489.50;5111428;28;20539;-50
2022/06/30 09:37:36;;;;;;;6.75;2.58;;;;;;;36.12;24.88;93492.41;5111669;28;20032;-50
2022/06/30 09:40:03;;;;;;;4.10;2.13;;;;;;;36.65;24.62;93483.66;5099326;28;20020;-47
2022/06/30 09:42:55;;;;;;;13.52;4.90;;;;;;;37.17;25.07;93487.06;5091135;28;20024;-48
2022/06/30 09:45:35;;;;;;;4.85;2.63;;;;;;;38.00;23.80;93489.41;5089603;28;20119;-49
2022/06/30 09:48:00;;;;;;;2.30;2.03;;;;;;;38.33;23.31;93487.69;5090837;28;20028;-49
2022/06/30 09:50:26;;;;;;;3.10;2.20;;;;;;;37.79;22.91;93485.25;5090767;28;20031;-50
2022/06/30 09:53:07;;;;;;;2.25;1.90;;;;;;;38.23;22.27;93475.47;5091126;28;20028;-49
2022/06/30 09:55:50;;;;;;;2.92;2.42;;;;;;;38.28;20.54;93486.28;5091116;28;20024;-51
2022/06/30 09:58:35;;;;;;;3.65;2.78;;;;;;;38.02;21.61;93485.78;5090676;28;20023;-53
2022/06/30 10:01:01;;;;;;;4.68;2.20;;;;;;;38.07;20.89;93490.78;5090689;28;20108;-49
2022/06/30 10:03:27;;;;;;;2.90;2.15;;;;;;;37.98;21.98;93483.66;5090868;28;20031;-48
2022/06/30 10:06:13;;;;;;;3.42;2.35;;;;;;;38.13;21.00;93482.06;5090603;28;20546;-50
2022/06/30 10:08:39;;;;;;;2.10;1.90;;;;;;;38.39;21.58;93466.72;5090490;28;20035;-49
2022/06/30 10:11:05;;;;;;;4.10;2.20;;;;;;;38.68;21.10;93474.34;5090695;28;20454;-52
2022/06/30 10:13:35;;;;;;;7.20;2.45;;;;;;;38.74;20.55;93467.78;5090780;28;20024;-49
2022/06/30 10:16:03;;;;;;;3.63;2.25;;;;;;;38.88;21.23;93472.69;5090396;28;20115;-49
2022/06/30 10:18:29;;;;;;;8.15;2.20;;;;;;;38.98;21.58;93481.22;5090200;28;20085;-49
2022/06/30 10:20:55;;;;;;;4.28;1.92;;;;;;;38.71;21.70;93483.69;5089598;28;20032;-52
2022/06/30 10:23:22;;;;;;;6.55;2.40;;;;;;;38.39;21.27;93473.19;5090364;28;20485;-51
2022/06/30 10:25:48;;;;;;;2.40;2.20;;;;;;;37.97;20.86;93479.34;5090407;28;20024;-54
2022/06/30 10:28:18;;;;;;;3.63;2.15;;;;;;;38.07;22.01;93467.72;5090290;28;20059;-49
2022/06/30 10:30:51;;;;;;;4.95;2.10;;;;;;;38.44;21.52;93468.09;5090547;28;20028;-53
2022/06/30 10:33:33;;;;;;;2.88;2.20;;;;;;;38.22;22.11;93471.19;5090259;28;20085;-48
2022/06/30 10:36:10;;;;;;;4.00;2.15;;;;;;;38.06;22.37;93466.28;5090116;28;20107;-51
2022/06/30 10:38:42;;;;;;;3.50;2.40;;;;;;;38.47;23.69;93464.44;5093464;28;20020;-54
2022/06/30 10:41:15;;;;;;;2.35;2.00;;;;;;;38.62;22.34;93459.22;5093547;28;20031;-49
2022/06/30 10:44:23;;;;;;;5.47;2.25;;;;;;;39.37;21.81;93453.25;5094445;28;20497;-48
2022/06/30 10:46:48;;;;;;;3.30;2.25;;;;;;;39.64;20.71;93450.69;5074885;28;20505;-48
2022/06/30 10:49:15;;;;;;;4.18;2.33;;;;;;;39.88;20.03;93445.25;5094027;28;20077;-48
2022/06/30 10:51:41;;;;;;;2.33;2.08;;;;;;;40.05;22.90;93449.31;5094538;28;20126;-50
2022/06/30 10:54:07;;;;;;;2.17;1.90;;;;;;;40.02;21.05;93447.94;5094494;28;20111;-47
2022/06/30 10:56:54;;;;;;;5.20;4.15;;;;;;;40.36;21.41;93440.81;5093041;28;20028;-50
2022/06/30 10:59:27;;;;;;;5.33;3.10;;;;;;;41.18;21.83;93444.25;5094414;28;20038;-48
2022/06/30 11:02:11;;;;;;;2.58;2.38;;;;;;;41.18;19.36;93444.25;5094433;28;20036;-47
2022/06/30 11:04:40;;;;;;;4.82;2.42;;;;;;;41.11;19.60;93437.16;5094279;28;20472;-51
2022/06/30 11:07:23;;;;;;;5.70;2.53;;;;;;;41.14;18.80;93450.16;5094247;28;20082;-49
2022/06/30 11:09:57;;;;;;;3.00;2.50;;;;;;;40.74;21.02;93445.19;5093798;28;20481;-50
2022/06/30 11:12:49;;;;;;;7.35;3.20;;;;;;;40.95;21.14;93437.53;5094224;28;20031;-48
2022/06/30 11:15:14;;;;;;;5.97;3.38;;;;;;;40.58;20.74;93439.72;5093205;28;20509;-49
2022/06/30 11:17:40;;;;;;;17.60;6.80;;;;;;;39.81;21.43;93429.47;5107073;28;20107;-48
2022/06/30 11:20:07;;;;;;;5.70;3.05;;;;;;;39.16;22.05;93437.66;5114465;28;20024;-50
2022/06/30 11:22:34;;;;;;;3.75;2.80;;;;;;;38.22;22.68;93427.94;5114055;28;20035;-50
2022/06/30 11:25:08;;;;;;;3.17;2.65;;;;;;;37.00;23.69;93424.53;5113954;28;20028;-49
2022/06/30 11:27:36;;;;;;;3.20;2.90;;;;;;;36.35;24.36;93416.16;5114320;28;20034;-47
2022/06/30 11:30:07;;;;;;;3.72;2.78;;;;;;;36.18;26.11;93416.91;5113835;28;20031;-48
2022/06/30 11:32:33;;;;;;;4.35;2.38;;;;;;;36.08;27.09;93414.06;5101744;28;20092;-53
2022/06/30 11:34:59;;;;;;;3.13;2.83;;;;;;;36.16;25.62;93414.78;5093292;28;20103;-48
2022/06/30 11:37:30;;;;;;;5.68;3.10;;;;;;;36.28;28.07;93416.88;5093369;28;20027;-49
2022/06/30 11:39:57;;;;;;;5.25;3.17;;;;;;;36.03;29.97;93416.25;5092481;28;20027;-47
2022/06/30 11:42:23;;;;;;;5.25;3.20;;;;;;;36.16;28.91;93417.66;5093534;28;20085;-49
2022/06/30 11:44:49;;;;;;;3.35;3.05;;;;;;;35.59;27.74;93410.50;5093492;28;20082;-49